Latest Weather Observations for Kuitpo

IDS60801

Issued at 11:31 am CST Wednesday 2 September 2015 (issued every 30 minutes, with the page automatically refreshed every 10 minutes)

About weather observations | Map of weather stations | Latest weather observations for SA | Other Formats
Station Details ID: 023887 Name: KUITPO FOREST RESERVE Lat: -35.17 Lon: 138.68 Height: 365.0 m
Data from the previous 72 hours. | See also: Recent months at Kuitpo
Date/Time
CST
Temp
°C
App
Temp
°C
Dew
Point
Rel
Hum
%
Delta-T
°C
Wind Press
QNH
hPa
Press
MSL
hPa
Rain
since 9 am
mm
Dir
 
Spd
km/h
Gust
km/h
Spd
kts
Gust
kts
02/11:30am 9.4 6.2 8.5 94 0.4 NNW 15 22 8 12 1002.0 1001.7 2.4
02/11:00am 9.9 6.2 8.0 88 0.9 NNW 17 28 9 15 1002.4 1002.1 0.2
02/10:30am 10.3 5.9 7.2 81 1.5 NNW 20 35 11 19 1002.5 1002.2 0.0
02/10:00am 10.8 6.6 7.5 80 1.6 NNW 19 41 10 22 1002.8 1002.5 0.0
02/09:30am 9.7 4.9 7.5 86 1.1 NNW 22 35 12 19 1003.0 1002.7 0.0
02/09:00am 9.3 4.8 7.1 86 1.1 NNW 20 39 11 21 1003.4 1003.2 4.6
02/08:30am 9.3 5.5 7.6 89 0.8 NNW 17 35 9 19 1003.2 1003.0 4.6
02/08:00am 8.7 4.4 7.2 90 0.7 N 19 30 10 16 1003.1 1002.9 4.6
02/07:30am 8.4 4.0 6.7 89 0.8 N 19 35 10 19 1003.2 1003.0 4.6
02/07:00am 8.4 4.0 6.7 89 0.8 NNW 19 30 10 16 1003.3 1003.1 4.6
02/06:30am 8.4 4.7 6.4 87 0.9 NNW 15 28 8 15 1003.0 1002.7 4.6
02/06:00am 8.4 4.0 6.7 89 0.8 N 19 28 10 15 1003.2 1003.0 4.6
02/05:30am 8.5 4.9 6.6 88 0.9 NNW 15 28 8 15 1003.1 1002.9 4.6
02/05:00am 8.4 4.8 6.9 90 0.7 NNE 15 26 8 14 1002.5 1002.2 4.6
02/04:30am 8.4 4.9 7.2 92 0.6 N 15 26 8 14 1003.2 1003.0 4.6
02/04:00am 8.3 4.8 7.2 93 0.5 N 15 26 8 14 1003.1 1002.9 4.6
02/03:30am 8.6 4.5 7.7 94 0.4 NNW 19 32 10 17 1004.0 1003.8 4.2
02/03:00am 8.8 4.7 7.9 94 0.4 N 19 28 10 15 1004.0 1003.8 3.6
02/02:30am 8.8 4.5 7.9 94 0.4 NNW 20 33 11 18 1004.7 1004.4 3.6
02/02:00am 9.0 4.4 8.2 95 0.4 NNW 22 44 12 24 1005.1 1004.8 3.6
02/01:30am 8.8 4.8 8.2 96 0.3 N 19 32 10 17 1005.5 1005.3 3.4
02/01:00am 8.8 4.5 8.0 95 0.4 N 20 30 11 16 1005.5 1005.3 3.4
02/12:30am 8.8 4.7 8.0 95 0.4 N 19 35 10 19 1006.0 1005.8 2.8
02/12:00am 9.2 5.0 8.1 93 0.5 N 20 43 11 23 1006.3 1006.1 2.0
 
Date/Time
CST
Temp
°C
App
Temp
°C
Dew
Point
Rel
Hum
%
Delta-T
°C
Wind Press
QNH
hPa
Press
MSL
hPa
Rain
since 9 am
mm
Dir
 
Spd
km/h
Gust
km/h
Spd
kts
Gust
kts
01/11:30pm 10.2 5.9 8.0 86 1.1 N 20 32 11 17 1006.2 1006.0 0.4
01/11:00pm 11.8 5.8 6.9 72 2.4 NNW 28 52 15 28 1006.6 1006.4 0.0
01/10:55pm 12.6 6.5 6.6 67 2.9 NNW 28 52 15 28 1006.5 1006.3 0.0
01/10:30pm 13.5 8.5 6.4 62 3.5 N 22 46 12 25 1006.2 1006.0 0.0
01/10:00pm 12.3 8.9 4.0 57 3.8 NNE 11 20 6 11 1006.1 1005.9 0.0
01/09:30pm 12.3 8.0 3.3 54 4.1 NNE 15 20 8 11 1006.3 1006.1 0.0
01/09:00pm 12.6 8.3 3.3 53 4.2 NNE 15 22 8 12 1006.5 1006.3 0.0
01/08:30pm 13.1 7.9 3.5 52 4.4 NE 20 32 11 17 1006.3 1006.1 0.0
01/08:00pm 13.1 8.2 4.0 54 4.2 NE 19 26 10 14 1006.5 1006.3 0.0
01/07:30pm 13.4 8.3 4.0 53 4.4 NE 20 30 11 16 1006.3 1006.1 0.0
01/07:00pm 13.6 9.2 4.7 55 4.2 NE 17 26 9 14 1006.5 1006.3 0.0
01/06:30pm 13.5 9.5 4.9 56 4.1 NE 15 20 8 11 1006.7 1006.5 0.0
01/06:00pm 13.9 10.2 4.5 53 4.4 NNE 13 24 7 13 1006.8 1006.6 0.0
01/05:30pm 14.2 11.2 4.2 51 4.7 NNE 9 15 5 8 1007.0 1006.8 0.0
01/05:00pm 14.4 11.1 4.4 51 4.7 N 11 17 6 9 1007.2 1007.0 0.0
01/04:30pm 14.5 9.9 3.6 48 5.1 N 17 33 9 18 1007.4 1007.2 0.0
01/04:00pm 15.1 11.4 4.5 49 5.0 N 13 28 7 15 1007.8 1007.6 0.0
01/03:30pm 15.4 11.7 4.5 48 5.2 N 13 20 7 11 1008.0 1007.8 0.0
01/03:00pm 15.4 11.7 4.5 48 5.2 NNW 13 24 7 13 1008.4 1008.2 0.0
01/02:30pm 15.1 9.1 3.6 46 5.4 NW 24 37 13 20 1008.8 1008.6 0.0
01/02:00pm 15.4 10.3 4.2 47 5.3 NNW 20 39 11 21 1008.8 1008.6 0.0
01/01:30pm 16.4 12.1 5.1 47 5.5 NNW 17 33 9 18 1009.1 1008.9 0.0
01/01:00pm 17.2 12.9 5.2 45 5.9 NNW 17 30 9 16 1009.3 1009.1 0.0
01/12:30pm 16.8 12.4 4.5 44 5.9 N 17 28 9 15 1009.9 1009.7 0.0
01/12:00pm 16.9 11.8 3.2 40 6.4 NNW 19 32 10 17 1010.6 1010.4 0.0
01/11:30am 16.9 12.3 5.5 47 5.6 N 19 33 10 18 1011.0 1010.8 0.0
01/11:00am 15.8 11.2 3.9 45 5.6 NNW 17 26 9 14 1011.3 1011.1 0.0
01/10:30am 15.1 10.5 3.9 47 5.3 NNW 17 30 9 16 1011.6 1011.4 0.0
01/10:00am 15.2 11.2 4.9 50 4.9 NNW 15 24 8 13 1011.8 1011.6 0.0
01/09:30am 15.2 10.5 3.4 45 5.5 NNW 17 30 9 16 1012.2 1012.0 0.0
01/09:00am 15.6 12.7 4.9 49 5.1 N 9 20 5 11 1012.3 1012.5 0.2
01/08:30am 13.5 10.8 5.4 58 3.9 N 9 15 5 8 1012.3 1012.5 0.2
01/08:00am 12.3 9.1 5.2 62 3.3 N 11 19 6 10 1012.4 1012.6 0.2
01/07:30am 11.9 7.1 4.6 61 3.4 NW 19 26 10 14 1012.6 1012.8 0.2
01/07:00am 11.8 7.7 4.5 61 3.4 WNW 15 26 8 14 1012.2 1012.4 0.0
01/06:30am 13.1 8.6 4.0 54 4.2 NW 17 30 9 16 1011.8 1011.9 0.0
01/06:00am 12.8 8.4 2.6 50 4.6 NNW 15 26 8 14 1011.7 1011.8 0.0
01/05:30am 12.2 8.2 2.9 53 4.2 N 13 24 7 13 1011.6 1011.7 0.0
01/05:00am 11.7 7.7 3.0 55 3.9 N 13 20 7 11 1011.5 1011.6 0.0
01/04:30am 11.5 7.6 3.3 57 3.7 N 13 20 7 11 1011.6 1011.7 0.0
01/04:00am 10.3 6.1 3.6 63 3.0 N 15 20 8 11 1011.9 1012.0 0.0
01/03:30am 9.0 5.1 3.6 69 2.4 NNE 13 15 7 8 1012.2 1012.4 0.0
01/03:00am 9.1 5.3 3.7 69 2.4 NNE 13 17 7 9 1012.5 1012.7 0.0
01/02:30am 8.8 4.9 3.6 70 2.3 NE 13 19 7 10 1013.0 1013.2 0.0
01/02:00am 9.3 5.0 3.5 67 2.6 NE 15 22 8 12 1013.5 1013.6 0.0
01/01:30am 9.6 5.4 3.6 66 2.7 NE 15 24 8 13 1013.7 1013.8 0.0
01/01:00am 9.4 4.8 3.8 68 2.5 NE 17 22 9 12 1013.9 1014.0 0.0
01/12:30am 9.4 4.8 3.8 68 2.5 NE 17 24 9 13 1014.3 1014.5 0.0
01/12:00am 9.5 4.3 3.7 67 2.6 NE 20 24 11 13 1014.4 1014.6 0.0
 
Date/Time
CST
Temp
°C
App
Temp
°C
Dew
Point
Rel
Hum
%
Delta-T
°C
Wind Press
QNH
hPa
Press
MSL
hPa
Rain
since 9 am
mm
Dir
 
Spd
km/h
Gust
km/h
Spd
kts
Gust
kts
31/11:30pm 9.3 4.1 3.7 68 2.5 NE 20 24 11 13 1014.8 1015.0 0.0
31/11:00pm 10.0 5.4 3.7 65 2.8 ENE 17 22 9 12 1015.2 1015.4 0.0
31/10:30pm 10.4 5.8 3.9 64 2.9 ENE 17 22 9 12 1015.4 1015.6 0.0
31/10:00pm 10.6 6.1 4.1 64 3.0 ENE 17 24 9 13 1015.7 1015.9 0.0
31/09:30pm 11.0 6.5 4.0 62 3.2 ENE 17 20 9 11 1015.9 1016.1 0.0
31/09:00pm 10.9 6.1 4.4 64 3.0 ENE 19 24 10 13 1016.2 1016.3 0.0
31/08:30pm 11.2 6.8 4.9 65 2.9 ENE 17 20 9 11 1016.4 1016.5 0.0
31/08:00pm 11.3 6.7 5.4 67 2.8 E 19 24 10 13 1016.4 1016.5 0.0
31/07:30pm 11.5 7.3 5.6 67 2.8 E 17 20 9 11 1016.3 1016.4 0.0
31/07:00pm 11.6 7.4 5.5 66 2.9 E 17 20 9 11 1016.0 1016.2 0.0
31/06:30pm 11.9 9.1 3.2 55 3.9 E 7 13 4 7 1015.9 1016.1 0.0
31/06:00pm 12.6 10.3 2.7 51 4.4 N 4 6 2 3 1015.6 1015.8 0.0
31/05:30pm 14.1 11.3 3.3 48 5.0 NNW 7 9 4 5 1015.8 1016.0 0.0
31/05:00pm 14.8 11.8 3.9 48 5.1 NW 9 17 5 9 1016.2 1016.3 0.0
31/04:30pm 15.3 11.8 3.5 45 5.5 WNW 11 17 6 9 1016.2 1016.3 0.0
31/04:00pm 15.4 11.4 2.6 42 5.9 WNW 13 17 7 9 1016.3 1016.4 0.0
31/03:30pm 15.3 11.2 2.1 41 6.0 WNW 13 19 7 10 1016.4 1016.5 0.0
31/03:00pm 15.8 12.5 2.2 40 6.2 WNW 9 17 5 9 1016.6 1016.7 0.0
31/02:30pm 15.2 11.4 1.7 40 6.0 WNW 11 17 6 9 1016.9 1017.1 0.0
31/02:00pm 15.5 12.0 3.3 44 5.7 WNW 11 19 6 10 1017.1 1017.3 0.0
31/01:30pm 15.1 11.2 3.6 46 5.3 WNW 13 19 7 10 1017.3 1017.5 0.0
31/01:00pm 15.4 11.8 3.2 44 5.7 WNW 11 20 6 11 1017.8 1018.0 0.0
31/12:30pm 14.7 10.3 2.6 44 5.5 WNW 15 24 8 13 1018.2 1018.4 0.0
31/12:00pm 15.0 11.6 4.1 48 5.1 W 11 19 6 10 1018.5 1018.7 0.0
31/11:30am 14.3 10.9 4.0 50 4.8 WNW 11 19 6 10 1018.8 1019.0 0.0
31/11:00am 14.0 10.4 3.2 48 4.9 WNW 11 17 6 9 1019.3 1019.5 0.0
31/10:30am 13.6 10.2 4.2 53 4.4 WNW 11 15 6 8 1019.4 1019.6 0.0
31/10:00am 13.7 10.4 4.3 53 4.4 NNW 11 17 6 9 1019.4 1019.6 0.0
31/09:30am 13.1 10.2 4.8 57 3.9 NNW 9 15 5 8 1019.6 1019.8 0.0
31/09:00am 11.9 9.4 4.6 61 3.4 N 7 11 4 6 1019.5 1019.7 0.0
31/08:30am 10.1 7.2 2.7 60 3.2 NNE 7 11 4 6 1019.5 1019.7 0.0
31/08:00am 8.8 5.5 2.4 64 2.7 NNE 9 11 5 6 1019.3 1019.5 0.0
31/07:30am 7.2 3.8 1.9 69 2.2 NNE 9 11 5 6 1019.5 1019.7 0.0
31/07:00am 5.7 1.9 1.6 75 1.7 NNE 11 13 6 7 1019.3 1019.5 0.0
31/06:30am 5.9 2.1 1.6 74 1.8 NNE 11 15 6 8 1019.1 1019.3 0.0
31/06:00am 5.9 1.7 1.6 74 1.8 NNE 13 15 7 8 1019.3 1019.5 0.0
31/05:30am 5.2 1.4 1.7 78 1.4 NE 11 15 6 8 1019.2 1019.4 0.0
31/05:00am 5.3 1.5 1.8 78 1.4 NE 11 17 6 9 1019.2 1019.4 0.0
31/04:30am 5.3 1.5 2.0 79 1.4 NE 11 15 6 8 1019.2 1019.4 0.0
31/04:00am 5.6 1.5 2.3 79 1.4 NE 13 19 7 10 1019.2 1019.4 0.0
31/03:30am 5.7 0.9 2.5 80 1.3 NE 17 24 9 13 1019.4 1019.6 0.0
31/03:00am 5.5 0.3 2.7 82 1.2 NE 19 24 10 13 1019.6 1019.8 0.0
31/02:30am 5.3 0.2 2.8 84 1.0 NE 19 24 10 13 1019.8 1020.0 0.0
31/02:00am 5.1 0.3 2.8 85 1.0 NE 17 22 9 12 1020.1 1020.3 0.0
31/01:30am 5.2 0.1 2.9 85 1.0 NE 19 24 10 13 1020.4 1020.6 0.0
31/01:00am 5.2 0.1 3.1 86 0.9 NE 19 26 10 14 1020.8 1021.0 0.0
31/12:30am 5.3 0.1 3.3 87 0.8 NE 20 28 11 15 1020.8 1021.0 0.0
31/12:00am 5.7 1.1 3.5 86 0.9 ENE 17 22 9 12 1020.8 1021.0 0.0
 
Date/Time
CST
Temp
°C
App
Temp
°C
Dew
Point
Rel
Hum
%
Delta-T
°C
Wind Press
QNH
hPa
Press
MSL
hPa
Rain
since 9 am
mm
Dir
 
Spd
km/h
Gust
km/h
Spd
kts
Gust
kts
30/11:30pm 6.0 1.0 3.7 85 1.0 ENE 19 24 10 13 1021.0 1021.2 0.0
30/11:00pm 6.1 1.1 3.6 84 1.1 ENE 19 24 10 13 1021.1 1021.3 0.0
30/10:30pm 6.7 1.8 3.9 82 1.2 ENE 19 22 10 12 1021.5 1021.8 0.0
30/10:00pm 6.7 2.1 3.7 81 1.3 E 17 20 9 11 1021.8 1022.1 0.0
30/09:30pm 7.1 1.9 3.7 79 1.5 E 20 24 11 13 1021.7 1022.0 0.0
30/09:00pm 6.9 2.5 4.6 85 1.0 ESE 17 20 9 11 1022.1 1022.3 0.0
30/08:30pm 7.3 2.7 3.7 78 1.6 ESE 17 19 9 10 1022.0 1022.2 0.0
30/08:00pm 7.5 2.5 3.7 77 1.7 ESE 19 22 10 12 1021.8 1022.1 0.0
30/07:30pm 7.4 3.2 3.8 78 1.6 ESE 15 19 8 10 1021.8 1022.1 0.0
30/07:00pm 8.0 3.5 4.2 77 1.7 ESE 17 20 9 11 1021.8 1022.1 0.0
30/06:30pm 8.2 4.6 4.8 79 1.5 ESE 13 17 7 9 1021.8 1022.1 0.0
30/06:00pm 9.0 6.1 4.4 73 2.1 SE 9 11 5 6 1021.7 1022.0 0.0
30/05:30pm 10.4 7.4 3.9 64 2.9 SW 9 15 5 8 1021.5 1021.8 0.0
30/05:00pm 11.4 7.6 3.9 60 3.4 WSW 13 19 7 10 1021.3 1021.6 0.0
30/04:30pm 12.1 8.4 4.6 60 3.5 WSW 13 20 7 11 1021.1 1021.3 0.0
30/04:00pm 12.6 8.9 4.3 57 3.8 W 13 22 7 12 1021.2 1021.4 0.0
30/03:30pm 13.6 10.7 4.7 55 4.2 W 9 17 5 9 1021.2 1021.4 0.0
30/03:00pm 14.1 11.7 4.4 52 4.5 SW 6 15 3 8 1021.3 1021.6 0.0
30/02:30pm 13.8 11.3 4.7 54 4.3 NNE 7 13 4 7 1021.6 1021.9 0.0
30/02:00pm 12.7 9.2 3.6 54 4.2 W 11 15 6 8 1022.0 1022.2 0.0
30/01:30pm 12.7 10.3 5.1 60 3.6 ENE 7 11 4 6 1022.3 1022.5 0.0
30/01:00pm 11.4 8.8 3.4 58 3.6 SSW 6 11 3 6 1022.7 1022.9 0.0
30/12:30pm 11.2 8.5 3.7 60 3.4 E 7 17 4 9 1023.2 1023.4 0.0
30/12:00pm 12.1 9.4 3.9 57 3.7 E 7 13 4 7 1023.6 1023.9 0.0

Other Formats:

Comma delimited format used in spreadsheet applications
http://www.bom.gov.au/fwo/IDS60801/IDS60801.94683.axf

JavaScript Object Notation format (JSON) in row-major order
http://www.bom.gov.au/fwo/IDS60801/IDS60801.94683.json